Time;durP1;ratioP1;P1;durP2;ratioP2;P2;SDS_P1;SDS_P2;PMS_P1;PMS_P2;Temp;Humidity;BMP_temperature;BMP_pressure;BME280_temperature;BME280_humidity;BME280_pressure;Samples;Min_cycle;Max_cycle;Signal;HPM_P1;HPM_P2
2023/08/24 00:01:41;;;;;;;5.20;3.45;;;19.30;96.70;;;;;;5016536;28;90889;-76
2023/08/24 00:04:08;;;;;;;6.45;3.03;;;19.30;97.00;;;;;;5017699;28;87544;-76
2023/08/24 00:06:34;;;;;;;7.50;3.78;;;19.30;96.90;;;;;;5014851;28;90745;-76
2023/08/24 00:08:59;;;;;;;7.75;3.67;;;19.20;97.10;;;;;;5017385;28;90112;-76
2023/08/24 00:11:25;;;;;;;5.90;3.33;;;19.20;97.20;;;;;;5017768;28;89068;-76
2023/08/24 00:13:51;;;;;;;5.22;3.53;;;19.20;97.10;;;;;;5017452;28;87880;-76
2023/08/24 00:16:20;;;;;;;7.22;3.53;;;19.20;96.90;;;;;;5017455;28;87504;-76
2023/08/24 00:18:46;;;;;;;10.73;4.43;;;19.20;96.80;;;;;;5016803;28;89264;-76
2023/08/24 00:21:22;;;;;;;3.83;3.30;;;19.10;96.60;;;;;;4997764;28;89949;-75
2023/08/24 00:23:48;;;;;;;6.22;4.18;;;19.10;96.40;;;;;;5007845;28;87159;-76
2023/08/24 00:26:16;;;;;;;8.68;3.78;;;19.10;96.30;;;;;;5017725;28;88199;-76
2023/08/24 00:28:42;;;;;;;8.65;4.10;;;19.10;96.20;;;;;;5015119;28;92151;-76
2023/08/24 00:31:08;;;;;;;8.73;3.92;;;19.10;96.10;;;;;;4998616;28;90055;-76
2023/08/24 00:33:34;;;;;;;9.68;4.53;;;19.10;96.00;;;;;;5015348;28;88202;-76
2023/08/24 00:36:00;;;;;;;7.40;3.60;;;19.10;96.00;;;;;;5017782;28;88178;-76
2023/08/24 00:38:26;;;;;;;7.13;4.22;;;19.10;96.00;;;;;;4998696;28;91908;-76
2023/08/24 00:40:53;;;;;;;6.85;3.80;;;19.00;95.90;;;;;;5017202;28;87850;-76
2023/08/24 00:43:23;;;;;;;7.75;4.60;;;19.00;95.90;;;;;;5017329;28;86976;-75
2023/08/24 00:45:55;;;;;;;8.90;4.70;;;19.00;95.90;;;;;;5016564;28;87799;-76
2023/08/24 00:48:25;;;;;;;9.30;4.25;;;19.00;95.90;;;;;;5017259;28;88664;-76
2023/08/24 00:50:52;;;;;;;6.00;4.00;;;18.90;96.10;;;;;;5018221;28;86622;-75
2023/08/24 00:53:19;;;;;;;5.70;4.07;;;18.90;96.10;;;;;;5016636;28;87637;-76
2023/08/24 00:55:45;;;;;;;9.40;4.40;;;18.80;96.20;;;;;;5017028;28;87559;-76
2023/08/24 00:58:13;;;;;;;5.88;4.50;;;18.80;96.20;;;;;;4997390;28;90141;-75
2023/08/24 01:00:38;;;;;;;6.97;4.43;;;18.80;96.30;;;;;;5016743;28;88428;-75
2023/08/24 01:03:04;;;;;;;8.07;4.13;;;18.80;96.50;;;;;;5018426;28;87629;-76
2023/08/24 01:05:30;;;;;;;6.80;3.90;;;18.70;96.40;;;;;;5016118;28;88758;-76
2023/08/24 01:07:55;;;;;;;11.43;4.03;;;18.70;96.40;;;;;;5016364;28;89183;-76
2023/08/24 01:10:22;;;;;;;10.43;3.58;;;18.70;96.50;;;;;;5016036;28;88353;-76
2023/08/24 01:12:55;;;;;;;6.93;4.25;;;18.60;96.60;;;;;;5015901;28;87833;-75
2023/08/24 01:15:47;;;;;;;;;;;18.70;96.80;;;;;;5017369;28;87032;-75
2023/08/24 01:18:16;;;;;;;9.40;4.60;;;18.60;96.90;;;;;;5013804;28;88377;-76
2023/08/24 01:20:43;;;;;;;7.53;4.72;;;18.60;96.90;;;;;;5017050;28;87773;-76
2023/08/24 01:23:31;;;;;;;6.80;4.32;;;18.50;97.00;;;;;;5015226;28;88440;-75
2023/08/24 01:26:19;;;;;;;9.02;4.72;;;18.50;97.20;;;;;;5015513;28;87817;-76
2023/08/24 01:28:46;;;;;;;10.30;4.60;;;18.50;97.00;;;;;;5016362;28;88650;-76
2023/08/24 01:31:15;;;;;;;8.77;4.93;;;18.50;97.00;;;;;;5016504;28;87465;-76
2023/08/24 01:33:41;;;;;;;12.23;5.03;;;18.50;97.00;;;;;;5016357;28;87647;-75
2023/08/24 01:36:08;;;;;;;11.35;5.38;;;18.60;96.90;;;;;;5016955;28;87914;-75
2023/08/24 01:38:34;;;;;;;9.60;5.45;;;18.60;96.80;;;;;;4996838;28;92035;-76
2023/08/24 01:41:16;;;;;;;9.38;5.53;;;18.60;96.90;;;;;;5016784;28;88282;-76
2023/08/24 01:43:45;;;;;;;7.07;4.85;;;18.60;96.80;;;;;;5017034;28;87491;-75
2023/08/24 01:46:14;;;;;;;10.75;5.82;;;18.60;96.60;;;;;;5016019;28;87230;-75
2023/08/24 01:48:40;;;;;;;12.02;5.45;;;18.60;96.50;;;;;;5015608;28;89599;-76
2023/08/24 01:51:07;;;;;;;10.57;5.57;;;18.60;96.40;;;;;;5016850;28;88778;-76
2023/08/24 01:53:33;;;;;;;10.50;6.07;;;18.60;96.20;;;;;;5016084;28;87564;-76
2023/08/24 01:55:59;;;;;;;14.50;5.82;;;18.70;96.40;;;;;;5015737;28;87558;-76
2023/08/24 01:58:24;;;;;;;11.27;5.57;;;18.70;96.50;;;;;;5015518;28;88555;-76
2023/08/24 02:00:50;;;;;;;9.23;5.00;;;18.70;96.30;;;;;;5015867;28;88891;-76
2023/08/24 02:03:15;;;;;;;9.13;5.35;;;18.70;96.30;;;;;;5016181;28;87843;-76
2023/08/24 02:05:41;;;;;;;13.73;5.72;;;18.70;96.30;;;;;;5017223;28;87191;-76
2023/08/24 02:08:07;;;;;;;11.15;6.05;;;18.80;96.20;;;;;;5016247;28;87384;-76
2023/08/24 02:10:32;;;;;;;11.57;5.90;;;18.80;95.90;;;;;;5015885;28;88597;-76
2023/08/24 02:12:58;;;;;;;8.63;5.25;;;18.80;95.70;;;;;;5015465;28;88463;-76
2023/08/24 02:15:23;;;;;;;13.30;5.28;;;18.80;95.80;;;;;;5015881;28;87577;-76
2023/08/24 02:17:49;;;;;;;7.57;5.32;;;18.80;96.10;;;;;;5015951;28;87872;-76
2023/08/24 02:20:15;;;;;;;10.18;5.60;;;18.90;96.40;;;;;;5014715;28;95125;-76
2023/08/24 02:22:41;;;;;;;18.33;6.85;;;18.90;96.30;;;;;;5014979;28;87687;-76
2023/08/24 02:25:08;;;;;;;9.90;5.70;;;18.90;95.60;;;;;;5015040;28;87781;-75
2023/08/24 02:27:33;;;;;;;9.63;5.78;;;18.90;95.30;;;;;;5015662;28;89369;-76
2023/08/24 02:30:00;;;;;;;8.35;5.93;;;18.90;96.20;;;;;;5017002;28;88200;-76
2023/08/24 02:32:25;;;;;;;11.80;6.28;;;18.90;96.00;;;;;;5016173;28;87224;-76
2023/08/24 02:34:51;;;;;;;12.23;6.00;;;19.00;95.90;;;;;;5015571;28;87234;-76
2023/08/24 02:37:17;;;;;;;13.25;5.95;;;19.00;95.60;;;;;;5013924;28;89509;-76
2023/08/24 02:39:42;;;;;;;11.68;5.97;;;19.00;95.50;;;;;;5015731;28;89892;-76
2023/08/24 02:42:09;;;;;;;10.85;6.85;;;19.00;95.50;;;;;;5014568;28;87544;-77
2023/08/24 02:44:35;;;;;;;15.40;8.43;;;19.00;95.40;;;;;;5015469;28;90912;-76
2023/08/24 02:47:01;;;;;;;10.93;7.10;;;18.90;95.50;;;;;;5014335;28;87902;-76
2023/08/24 02:49:26;;;;;;;10.93;6.63;;;18.90;96.00;;;;;;5014067;28;88249;-76
2023/08/24 02:51:52;;;;;;;8.32;6.60;;;19.00;96.30;;;;;;5015574;28;87643;-76
2023/08/24 02:54:18;;;;;;;8.75;5.50;;;19.00;96.40;;;;;;5015490;28;86779;-76
2023/08/24 02:56:43;;;;;;;12.07;5.75;;;19.00;96.50;;;;;;5015832;28;88757;-76
2023/08/24 02:59:09;;;;;;;25.27;8.15;;;19.10;96.80;;;;;;4995868;28;91592;-76
2023/08/24 03:01:38;;;;;;;9.85;5.88;;;19.10;96.80;;;;;;5012908;28;88072;-76
2023/08/24 03:04:05;;;;;;;11.40;7.13;;;19.10;96.90;;;;;;5015495;28;87190;-76
2023/08/24 03:06:30;;;;;;;17.55;7.43;;;19.10;97.40;;;;;;5015411;28;88390;-76
2023/08/24 03:08:56;;;;;;;15.25;7.60;;;19.00;97.70;;;;;;5016234;28;88653;-77
2023/08/24 03:11:22;;;;;;;12.20;7.25;;;19.00;97.80;;;;;;5015351;28;87587;-76
2023/08/24 03:13:48;;;;;;;13.30;8.07;;;18.90;97.80;;;;;;5015138;28;87542;-76
2023/08/24 03:16:13;;;;;;;13.93;8.35;;;18.80;98.10;;;;;;5015109;28;88793;-76
2023/08/24 03:18:39;;;;;;;19.60;8.00;;;18.80;98.60;;;;;;5012991;28;89888;-76
2023/08/24 03:21:04;;;;;;;19.17;8.48;;;18.70;98.80;;;;;;5015226;28;87159;-76
2023/08/24 03:23:30;;;;;;;11.27;7.63;;;18.70;99.20;;;;;;5014444;28;87920;-76
2023/08/24 03:25:56;;;;;;;11.93;8.43;;;18.60;99.30;;;;;;5011347;28;92513;-76
2023/08/24 03:28:22;;;;;;;12.88;7.97;;;18.60;99.40;;;;;;5014681;28;89448;-76
2023/08/24 03:30:50;;;;;;;16.95;9.20;;;18.60;99.60;;;;;;5015242;28;87440;-76
2023/08/24 03:33:16;;;;;;;14.13;8.95;;;18.60;99.90;;;;;;5014399;28;87739;-76
2023/08/24 03:35:42;;;;;;;20.38;8.93;;;18.60;99.90;;;;;;5014677;28;88670;-76
2023/08/24 03:38:07;;;;;;;19.15;9.15;;;18.60;99.90;;;;;;5014614;28;88953;-76
2023/08/24 03:40:33;;;;;;;16.15;8.52;;;18.60;99.90;;;;;;5014856;28;87587;-76
2023/08/24 03:42:59;;;;;;;14.82;8.55;;;18.60;99.90;;;;;;5014758;28;86969;-76
2023/08/24 03:45:24;;;;;;;15.05;9.65;;;18.60;99.90;;;;;;5014337;28;87928;-76
2023/08/24 03:47:50;;;;;;;15.15;9.07;;;18.60;99.90;;;;;;5015743;28;89259;-76
2023/08/24 03:50:16;;;;;;;16.08;9.55;;;18.70;99.90;;;;;;5017835;28;89076;-76
2023/08/24 03:52:42;;;;;;;16.60;9.75;;;18.70;99.90;;;;;;5017948;28;87808;-76
2023/08/24 03:55:08;;;;;;;10.70;8.15;;;18.70;99.90;;;;;;4999423;28;91092;-76
2023/08/24 03:57:34;;;;;;;16.25;9.00;;;18.80;99.90;;;;;;5014563;28;92212;-76
2023/08/24 04:00:00;;;;;;;14.15;8.70;;;18.80;99.90;;;;;;5019456;28;87654;-76
2023/08/24 04:02:26;;;;;;;14.50;9.43;;;18.80;99.90;;;;;;5018133;28;88122;-76
2023/08/24 04:04:52;;;;;;;12.18;8.02;;;18.80;99.90;;;;;;5018043;28;88982;-76
2023/08/24 04:07:18;;;;;;;12.85;8.60;;;18.80;99.90;;;;;;5017793;28;87189;-76
2023/08/24 04:09:45;;;;;;;11.98;9.50;;;18.90;99.90;;;;;;5018171;28;87649;-76
2023/08/24 04:12:11;;;;;;;19.08;8.45;;;18.90;99.90;;;;;;5017816;28;87837;-76
2023/08/24 04:14:36;;;;;;;11.57;7.55;;;18.90;99.90;;;;;;5018081;28;89272;-76
2023/08/24 04:17:02;;;;;;;14.02;7.85;;;18.90;99.90;;;;;;5017902;28;88786;-76
2023/08/24 04:19:28;;;;;;;13.27;8.73;;;18.90;99.90;;;;;;5018146;28;87650;-76
2023/08/24 04:21:53;;;;;;;12.18;8.55;;;18.90;99.90;;;;;;4998964;28;91092;-77
2023/08/24 04:24:19;;;;;;;15.82;8.77;;;18.90;99.90;;;;;;5017185;28;88630;-76
2023/08/24 04:26:46;;;;;;;19.83;9.05;;;18.90;99.90;;;;;;5019329;28;87686;-76
2023/08/24 04:29:11;;;;;;;13.82;8.20;;;18.90;99.90;;;;;;5017927;28;87614;-77
2023/08/24 04:31:40;;;;;;;15.57;9.30;;;18.80;99.90;;;;;;5018387;28;87203;-76
2023/08/24 04:34:05;;;;;;;15.32;9.25;;;18.80;99.90;;;;;;5018348;28;88216;-76
2023/08/24 04:36:31;;;;;;;17.80;9.50;;;18.80;99.90;;;;;;5018683;28;88356;-77
2023/08/24 04:38:57;;;;;;;11.38;8.80;;;18.70;99.90;;;;;;5017851;28;88571;-77
2023/08/24 04:41:22;;;;;;;16.08;9.52;;;18.80;99.90;;;;;;5016505;28;88775;-77
2023/08/24 04:43:48;;;;;;;13.10;9.00;;;18.70;99.90;;;;;;5015774;28;89312;-77
2023/08/24 04:46:13;;;;;;;17.00;8.88;;;18.70;99.90;;;;;;5015695;28;89013;-76
2023/08/24 04:48:39;;;;;;;12.05;7.55;;;18.70;99.90;;;;;;5016748;28;87417;-76
2023/08/24 04:51:05;;;;;;;16.48;9.27;;;18.70;99.90;;;;;;5016289;28;87836;-76
2023/08/24 04:53:30;;;;;;;14.30;9.02;;;18.70;99.90;;;;;;4996818;28;91569;-76
2023/08/24 04:55:56;;;;;;;18.27;9.45;;;18.60;99.90;;;;;;5013949;28;90150;-76
2023/08/24 04:58:22;;;;;;;14.45;9.70;;;18.60;99.90;;;;;;5016127;28;87811;-76
2023/08/24 05:00:48;;;;;;;11.77;8.15;;;18.60;99.90;;;;;;5012225;28;89733;-76
2023/08/24 05:03:14;;;;;;;13.32;8.40;;;18.60;99.90;;;;;;4997617;28;92064;-76
2023/08/24 05:05:40;;;;;;;21.70;8.98;;;18.60;99.80;;;;;;5016448;28;90238;-76
2023/08/24 05:08:09;;;;;;;17.48;9.00;;;18.60;99.80;;;;;;5016682;28;87574;-76
2023/08/24 05:10:35;;;;;;;16.25;8.45;;;18.60;99.80;;;;;;5016279;28;87754;-76
2023/08/24 05:13:01;;;;;;;11.05;8.30;;;18.60;99.80;;;;;;5016586;28;88481;-76
2023/08/24 05:15:27;;;;;;;10.05;7.85;;;18.60;99.80;;;;;;5016702;28;88354;-76
2023/08/24 05:17:54;;;;;;;20.02;9.00;;;18.60;99.90;;;;;;5017735;28;87903;-76
2023/08/24 05:20:21;;;;;;;15.93;9.27;;;18.60;99.90;;;;;;5016705;28;88441;-77
2023/08/24 05:22:47;;;;;;;13.30;8.13;;;18.60;99.90;;;;;;5016990;28;88609;-77
2023/08/24 05:25:13;;;;;;;18.10;9.65;;;18.50;99.90;;;;;;5016015;28;88872;-75
2023/08/24 05:27:39;;;;;;;14.18;8.85;;;18.50;99.90;;;;;;5015903;28;88642;-77
2023/08/24 05:30:06;;;;;;;13.75;8.57;;;18.50;99.90;;;;;;5016377;28;87817;-76
2023/08/24 05:32:31;;;;;;;12.43;8.43;;;18.50;99.90;;;;;;5016373;28;89981;-77
2023/08/24 05:34:57;;;;;;;20.08;9.05;;;18.50;99.90;;;;;;5015442;28;88366;-77
2023/08/24 05:37:24;;;;;;;14.10;8.75;;;18.50;99.90;;;;;;5016546;28;87863;-77
2023/08/24 05:39:50;;;;;;;13.65;8.02;;;18.50;99.90;;;;;;5016371;28;95133;-77
2023/08/24 05:42:15;;;;;;;12.07;7.97;;;18.60;99.90;;;;;;5017222;28;87885;-77
2023/08/24 05:44:41;;;;;;;13.88;9.00;;;18.60;99.90;;;;;;5015739;28;91456;-77
2023/08/24 05:47:07;;;;;;;13.00;10.00;;;18.70;99.90;;;;;;5015787;28;87672;-77
2023/08/24 05:49:32;;;;;;;15.63;10.43;;;18.70;99.90;;;;;;5013827;28;90601;-77
2023/08/24 05:51:58;;;;;;;15.85;9.93;;;18.70;99.90;;;;;;5014228;28;88742;-77
2023/08/24 05:54:24;;;;;;;13.30;9.35;;;18.80;99.90;;;;;;5015920;28;89019;-77
2023/08/24 05:56:50;;;;;;;13.18;9.10;;;18.90;99.90;;;;;;5016784;28;87637;-77
2023/08/24 05:59:15;;;;;;;18.20;8.23;;;18.90;99.90;;;;;;4996484;28;89643;-77
2023/08/24 06:01:41;;;;;;;12.82;8.82;;;19.00;99.90;;;;;;5013106;28;92010;-76
2023/08/24 06:04:08;;;;;;;15.27;8.70;;;19.00;99.90;;;;;;5005550;28;90845;-76
2023/08/24 06:06:35;;;;;;;18.17;9.25;;;19.10;99.90;;;;;;5015249;28;87664;-77
2023/08/24 06:09:00;;;;;;;15.82;9.35;;;19.20;99.90;;;;;;5016958;28;87845;-77
2023/08/24 06:11:26;;;;;;;17.10;9.93;;;19.20;99.90;;;;;;4996528;28;90563;-77
2023/08/24 06:13:55;;;;;;;14.30;8.75;;;19.30;99.90;;;;;;5015641;28;88417;-76
2023/08/24 06:16:20;;;;;;;15.88;9.23;;;19.40;99.90;;;;;;5015205;28;88162;-83
2023/08/24 06:18:46;;;;;;;13.60;9.68;;;19.50;99.90;;;;;;5015934;28;87957;-86
2023/08/24 06:21:12;;;;;;;16.27;10.13;;;19.50;99.90;;;;;;5004775;28;91525;-85
2023/08/24 06:23:38;;;;;;;10.65;7.75;;;19.60;99.90;;;;;;4996791;28;90197;-86
2023/08/24 06:26:04;;;;;;;12.45;7.97;;;19.70;99.90;;;;;;4998173;28;87923;-84
2023/08/24 06:28:30;;;;;;;12.85;7.50;;;19.80;99.90;;;;;;4997416;28;90697;-84
2023/08/24 06:30:57;;;;;;;14.20;8.02;;;19.90;99.90;;;;;;4999533;28;91529;-84
2023/08/24 06:33:30;;;;;;;8.75;6.88;;;20.00;99.90;;;;;;5016807;28;90989;-80
2023/08/24 06:35:57;;;;;;;15.73;8.23;;;20.00;99.90;;;;;;5015692;28;87790;-85
2023/08/24 06:38:23;;;;;;;17.17;7.22;;;20.20;99.90;;;;;;5014449;28;89652;-84
2023/08/24 06:40:48;;;;;;;11.77;7.68;;;20.30;99.90;;;;;;4997438;28;91416;-85
2023/08/24 06:43:14;;;;;;;14.63;7.30;;;20.30;99.90;;;;;;5016045;28;89338;-85
2023/08/24 06:45:40;;;;;;;10.88;6.80;;;20.50;99.90;;;;;;4997926;28;94572;-83
2023/08/24 06:48:07;;;;;;;8.40;6.07;;;20.60;99.90;;;;;;5016507;28;87836;-85
2023/08/24 06:50:33;;;;;;;11.20;7.47;;;20.70;99.90;;;;;;5006482;28;91612;-82
2023/08/24 06:52:59;;;;;;;7.90;6.18;;;20.90;99.90;;;;;;5013727;28;91290;-84
2023/08/24 06:55:27;;;;;;;10.63;6.38;;;21.00;99.90;;;;;;5015969;28;94158;-85
2023/08/24 06:57:52;;;;;;;11.38;6.32;;;21.20;99.90;;;;;;4998164;28;90023;-81
2023/08/24 07:00:19;;;;;;;9.63;5.40;;;21.30;99.90;;;;;;5013693;28;90384;-83
2023/08/24 07:02:47;;;;;;;13.68;6.45;;;21.40;99.90;;;;;;4998351;28;91233;-84
2023/08/24 07:05:18;;;;;;;11.80;6.03;;;21.60;99.90;;;;;;4994910;28;88556;-81
2023/08/24 07:07:45;;;;;;;10.23;5.97;;;21.70;99.90;;;;;;5013970;28;90543;-82
2023/08/24 07:10:12;;;;;;;10.18;5.68;;;21.90;99.90;;;;;;5015239;28;89063;-82
2023/08/24 07:12:40;;;;;;;11.73;6.10;;;22.00;99.90;;;;;;4996900;28;91038;-81
2023/08/24 07:15:07;;;;;;;9.63;5.70;;;22.20;99.90;;;;;;5015798;28;87134;-83
2023/08/24 07:17:32;;;;;;;10.38;5.18;;;22.40;99.90;;;;;;4997642;28;90783;-81
2023/08/24 07:19:58;;;;;;;12.48;5.40;;;22.50;99.30;;;;;;4996623;28;91670;-83
2023/08/24 07:22:26;;;;;;;10.60;5.35;;;22.60;99.00;;;;;;5013584;28;91337;-80
2023/08/24 07:24:52;;;;;;;8.98;5.18;;;22.70;98.70;;;;;;5018337;28;87840;-83
2023/08/24 07:27:18;;;;;;;8.13;4.63;;;22.80;99.10;;;;;;5011439;28;90662;-83
2023/08/24 07:29:44;;;;;;;9.02;4.32;;;23.00;98.70;;;;;;5001118;28;92490;-82
2023/08/24 07:32:10;;;;;;;8.20;4.03;;;23.10;98.00;;;;;;5002238;28;91248;-83
2023/08/24 07:34:36;;;;;;;12.98;4.30;;;23.30;97.40;;;;;;5000995;28;87551;-81
2023/08/24 07:37:02;;;;;;;7.78;3.92;;;23.40;97.70;;;;;;5002002;28;88769;-83
2023/08/24 07:39:27;;;;;;;9.07;4.22;;;23.50;96.70;;;;;;5017878;28;90418;-81
2023/08/24 07:41:53;;;;;;;10.02;4.13;;;23.60;96.80;;;;;;5001923;28;91037;-82
2023/08/24 07:44:19;;;;;;;10.75;3.90;;;23.80;96.70;;;;;;5001013;28;87716;-84
2023/08/24 07:46:45;;;;;;;10.85;3.40;;;23.90;96.20;;;;;;5017293;28;88950;-81
2023/08/24 07:49:10;;;;;;;9.35;3.72;;;24.10;96.10;;;;;;5001023;28;90520;-84
2023/08/24 07:51:36;;;;;;;8.68;3.90;;;24.20;96.10;;;;;;5001271;28;91089;-84
2023/08/24 07:54:04;;;;;;;9.50;4.15;;;24.40;95.90;;;;;;5018365;28;88688;-83
2023/08/24 07:56:30;;;;;;;8.30;3.72;;;24.50;95.20;;;;;;5017992;28;89447;-84
2023/08/24 07:58:56;;;;;;;7.63;3.50;;;24.70;94.80;;;;;;5001250;28;90922;-84
2023/08/24 08:01:21;;;;;;;6.13;3.10;;;24.80;94.20;;;;;;5017750;28;91429;-84
2023/08/24 08:03:47;;;;;;;6.35;3.50;;;24.90;92.40;;;;;;5009148;28;87764;-84
2023/08/24 08:06:13;;;;;;;9.10;3.28;;;24.90;92.50;;;;;;5001288;28;90029;-84
2023/08/24 08:08:39;;;;;;;5.43;2.90;;;25.00;93.10;;;;;;5001185;28;91069;-81
2023/08/24 08:11:05;;;;;;;7.07;3.25;;;25.10;93.30;;;;;;5016476;28;91158;-82
2023/08/24 08:13:30;;;;;;;5.40;3.08;;;25.30;93.60;;;;;;5000402;28;87435;-84
2023/08/24 08:16:07;;;;;;;5.60;2.92;;;25.50;92.60;;;;;;5017021;28;90083;-85
2023/08/24 08:18:34;;;;;;;4.82;2.33;;;25.70;93.50;;;;;;4999838;28;91027;-84
2023/08/24 08:21:00;;;;;;;5.70;2.95;;;25.90;93.70;;;;;;5000195;28;91876;-84
2023/08/24 08:23:25;;;;;;;5.45;3.03;;;26.20;92.90;;;;;;5000434;28;87253;-84
2023/08/24 08:25:51;;;;;;;6.30;2.90;;;26.30;92.90;;;;;;5000872;28;90617;-83
2023/08/24 08:28:18;;;;;;;10.05;3.00;;;26.50;92.80;;;;;;5018087;28;91316;-84
2023/08/24 08:30:48;;;;;;;4.63;3.15;;;26.70;91.30;;;;;;5001298;28;91218;-83
2023/08/24 08:33:14;;;;;;;5.05;2.65;;;26.80;91.80;;;;;;5001691;28;87575;-81
2023/08/24 08:35:43;;;;;;;5.80;2.60;;;27.00;91.10;;;;;;5000311;28;89530;-88
2023/08/24 08:38:08;;;;;;;6.88;2.38;;;27.20;91.50;;;;;;5011081;28;90273;-86
2023/08/24 08:40:37;;;;;;;6.65;2.63;;;27.30;90.80;;;;;;5001486;28;89802;-82
2023/08/24 08:43:03;;;;;;;5.80;2.70;;;27.50;90.50;;;;;;5001372;28;88585;-82
2023/08/24 08:45:29;;;;;;;6.32;2.90;;;27.60;89.50;;;;;;5018515;28;90636;-85
2023/08/24 08:47:59;;;;;;;5.88;2.80;;;27.80;89.70;;;;;;5019334;28;91355;-85
2023/08/24 08:50:25;;;;;;;4.60;2.67;;;27.90;88.20;;;;;;4995503;28;90379;-84
2023/08/24 08:52:51;;;;;;;4.72;2.90;;;28.00;88.40;;;;;;5001974;28;87387;-84
2023/08/24 08:55:18;;;;;;;5.57;2.50;;;28.10;88.40;;;;;;5002324;28;90755;-85
2023/08/24 08:57:44;;;;;;;4.95;2.75;;;28.30;88.30;;;;;;5003147;28;89680;-85
2023/08/24 09:00:14;;;;;;;3.95;2.05;;;28.50;87.70;;;;;;5003095;28;90976;-85
2023/08/24 09:02:44;;;;;;;8.98;2.90;;;28.60;87.10;;;;;;5021253;28;87133;-81
2023/08/24 09:05:10;;;;;;;4.57;2.75;;;28.70;84.40;;;;;;5001769;28;89302;-83
2023/08/24 09:07:36;;;;;;;5.72;2.53;;;28.80;82.90;;;;;;5000584;28;91595;-86
2023/08/24 09:10:04;;;;;;;8.27;2.67;;;28.90;81.70;;;;;;5001166;28;92077;-87
2023/08/24 09:12:33;;;;;;;9.02;2.90;;;28.90;81.70;;;;;;5017523;28;87669;-86
2023/08/24 09:14:59;;;;;;;8.27;2.85;;;29.00;83.40;;;;;;5000569;28;90168;-87
2023/08/24 09:17:25;;;;;;;5.72;2.75;;;29.20;83.00;;;;;;4999482;28;90134;-85
2023/08/24 09:19:53;;;;;;;6.78;2.70;;;29.30;80.40;;;;;;5015770;28;90833;-86
2023/08/24 09:22:19;;;;;;;7.80;3.13;;;29.20;80.20;;;;;;5016679;28;87561;-87
2023/08/24 09:24:48;;;;;;;4.30;2.88;;;29.20;79.10;;;;;;5000913;28;90093;-87
2023/08/24 09:27:21;;;;;;;8.32;3.40;;;29.20;79.20;;;;;;5000026;28;91679;-84
2023/08/24 09:29:51;;;;;;;7.80;3.65;;;29.20;79.10;;;;;;4998873;28;91305;-88
2023/08/24 09:32:24;;;;;;;5.90;3.25;;;29.30;79.30;;;;;;5006936;28;88639;-84
2023/08/24 09:34:50;;;;;;;6.65;3.40;;;29.30;78.00;;;;;;4999489;28;89929;-85
2023/08/24 09:37:16;;;;;;;4.75;3.28;;;29.30;78.10;;;;;;5018126;28;89714;-85
2023/08/24 09:39:42;;;;;;;9.20;3.20;;;29.20;78.40;;;;;;5001108;28;91216;-84
2023/08/24 09:42:08;;;;;;;6.43;3.28;;;29.20;76.40;;;;;;4999489;28;87571;-85
2023/08/24 09:44:34;;;;;;;6.97;2.90;;;29.10;78.20;;;;;;5018393;28;87426;-84
2023/08/24 09:47:00;;;;;;;6.10;2.85;;;29.10;79.30;;;;;;4999266;28;90443;-85
2023/08/24 09:49:28;;;;;;;9.10;2.90;;;29.10;80.00;;;;;;4999738;28;90512;-86
2023/08/24 09:51:57;;;;;;;7.72;3.35;;;29.10;78.40;;;;;;5000356;28;87742;-86
2023/08/24 09:54:27;;;;;;;8.80;3.13;;;28.90;77.80;;;;;;4998893;28;90747;-85
2023/08/24 09:56:55;;;;;;;5.22;3.38;;;28.90;78.90;;;;;;4999281;28;92604;-83
2023/08/24 09:59:26;;;;;;;6.30;3.20;;;28.70;77.90;;;;;;5014836;28;91154;-80
2023/08/24 10:01:55;;;;;;;4.97;2.60;;;28.70;79.70;;;;;;4999062;28;87820;-79
2023/08/24 10:04:25;;;;;;;7.63;3.08;;;28.60;80.10;;;;;;5015448;28;89001;-83
2023/08/24 10:07:09;;;;;;;8.93;3.50;;;28.50;79.20;;;;;;4999335;28;89352;-81
2023/08/24 10:09:54;;;;;;;11.52;3.00;;;28.40;80.20;;;;;;5016311;28;94404;-84
2023/08/24 10:12:24;;;;;;;9.43;3.17;;;28.30;80.40;;;;;;4987300;28;87640;-83
2023/08/24 10:15:03;;;;;;;21.48;4.57;;;28.20;81.40;;;;;;5015332;28;90281;-82
2023/08/24 10:17:32;;;;;;;21.92;4.82;;;28.00;82.30;;;;;;5019511;28;88703;-81
2023/08/24 10:20:05;;;;;;;6.18;3.63;;;27.80;84.60;;;;;;4994745;28;90142;-83
2023/08/24 10:22:31;;;;;;;7.50;3.30;;;27.60;85.60;;;;;;4996047;28;88526;-82
2023/08/24 10:24:58;;;;;;;9.00;3.95;;;27.30;86.60;;;;;;4996371;28;89233;-83
2023/08/24 10:27:27;;;;;;;9.27;4.30;;;27.00;88.10;;;;;;5011604;28;89812;-82
2023/08/24 10:29:53;;;;;;;13.32;4.10;;;26.50;89.70;;;;;;4995106;28;91537;-82
2023/08/24 10:32:21;;;;;;;10.98;4.22;;;26.20;90.60;;;;;;4998700;28;87446;-80
2023/08/24 10:34:47;;;;;;;11.88;4.20;;;25.90;91.20;;;;;;5013099;28;87557;-80
2023/08/24 10:37:12;;;;;;;9.88;4.68;;;25.60;91.70;;;;;;5013650;28;90706;-81
2023/08/24 10:39:45;;;;;;;5.93;3.72;;;25.40;92.20;;;;;;5013340;28;91554;-84
2023/08/24 10:42:12;;;;;;;7.38;4.18;;;25.30;92.40;;;;;;5010689;28;87171;-81
2023/08/24 10:44:39;;;;;;;7.88;4.07;;;25.10;92.40;;;;;;5019055;28;89142;-82
2023/08/24 10:47:22;;;;;;;7.90;4.30;;;24.90;92.60;;;;;;5011754;28;89057;-85
2023/08/24 10:50:00;;;;;;;9.57;5.20;;;24.60;93.10;;;;;;5027102;28;92431;-86
2023/08/24 10:52:36;;;;;;;9.50;4.90;;;24.40;93.70;;;;;;5000714;28;87678;-89
2023/08/24 10:55:03;;;;;;;10.82;4.90;;;24.20;94.30;;;;;;5000508;28;87977;-89
2023/08/24 10:57:38;;;;;;;10.82;5.22;;;24.00;94.90;;;;;;4997227;28;91098;-89
2023/08/24 11:00:05;;;;;;;8.73;5.03;;;23.90;95.40;;;;;;4996832;28;90523;-88
2023/08/24 11:02:41;;;;;;;8.85;5.60;;;23.80;95.80;;;;;;5018415;28;87804;-87
2023/08/24 11:05:32;;;;;;;9.50;5.53;;;23.70;96.20;;;;;;4999581;28;90137;-87
2023/08/24 11:08:00;;;;;;;10.07;5.47;;;23.70;96.40;;;;;;4998213;28;91530;-85
2023/08/24 11:10:46;;;;;;;8.68;5.40;;;23.60;96.50;;;;;;5010769;28;88908;-86
2023/08/24 11:13:16;;;;;;;7.95;4.43;;;23.70;96.60;;;;;;5012620;28;88472;-89
2023/08/24 11:15:54;;;;;;;10.55;5.30;;;23.70;96.50;;;;;;5017422;28;87289;-90
2023/08/24 11:18:27;;;;;;;9.48;5.05;;;23.70;97.10;;;;;;4997676;28;90395;-87
2023/08/24 11:21:01;;;;;;;9.75;4.63;;;23.80;97.20;;;;;;4996135;28;90840;-88
2023/08/24 11:23:28;;;;;;;9.88;5.15;;;23.80;97.10;;;;;;4997937;28;87484;-83
2023/08/24 11:25:59;;;;;;;12.73;5.70;;;23.90;97.30;;;;;;4999066;28;89240;-87
2023/08/24 11:28:26;;;;;;;8.75;5.40;;;24.00;97.40;;;;;;4998631;28;91533;-87
2023/08/24 11:30:53;;;;;;;11.63;5.63;;;24.10;97.60;;;;;;4999991;28;91644;-86
2023/08/24 11:33:37;;;;;;;10.13;6.47;;;24.10;97.50;;;;;;4998057;28;87606;-88
2023/08/24 11:36:04;;;;;;;11.38;5.45;;;24.20;97.70;;;;;;4995804;28;90750;-88
2023/08/24 11:38:40;;;;;;;11.68;6.05;;;24.20;97.70;;;;;;4996516;28;91569;-86
2023/08/24 11:41:14;;;;;;;9.57;6.07;;;24.30;97.60;;;;;;5000226;28;91340;-84
2023/08/24 11:43:40;;;;;;;9.30;5.65;;;24.30;97.90;;;;;;5014889;28;87662;-87
2023/08/24 11:46:06;;;;;;;9.50;5.88;;;24.30;97.70;;;;;;4998985;28;90581;-88
2023/08/24 11:48:31;;;;;;;7.72;5.57;;;24.30;97.60;;;;;;5013620;28;91457;-89
2023/08/24 11:50:58;;;;;;;8.43;5.30;;;24.50;97.40;;;;;;4996536;28;91391;-88
2023/08/24 11:53:25;;;;;;;8.27;5.55;;;24.50;97.40;;;;;;4999701;28;87678;-88
2023/08/24 11:55:55;;;;;;;7.65;5.05;;;24.60;97.30;;;;;;5000968;28;89617;-88
2023/08/24 11:58:21;;;;;;;6.25;4.30;;;24.70;97.50;;;;;;4999090;28;91997;-88
2023/08/24 12:00:47;;;;;;;7.78;4.25;;;24.80;96.90;;;;;;4999966;28;91443;-87
2023/08/24 12:03:14;;;;;;;6.95;4.55;;;24.90;96.60;;;;;;5015251;28;88850;-87
2023/08/24 12:05:39;;;;;;;12.88;4.78;;;25.00;96.50;;;;;;5014156;28;90752;-86
2023/08/24 12:08:06;;;;;;;8.40;4.22;;;25.10;94.70;;;;;;4997755;28;90765;-86
2023/08/24 12:10:32;;;;;;;8.93;3.72;;;25.10;95.70;;;;;;5001308;28;91709;-87
2023/08/24 12:13:05;;;;;;;7.25;3.78;;;25.10;94.70;;;;;;5012145;28;87686;-88
2023/08/24 12:15:35;;;;;;;9.35;4.20;;;25.20;95.60;;;;;;5017793;28;89033;-89
2023/08/24 12:18:13;;;;;;;7.78;3.65;;;25.20;93.80;;;;;;5002592;28;90616;-87
2023/08/24 12:20:43;;;;;;;6.32;3.47;;;25.10;93.90;;;;;;5019342;28;91093;-87
2023/08/24 12:23:10;;;;;;;4.68;3.42;;;25.10;94.10;;;;;;5019069;28;89252;-88
2023/08/24 12:25:43;;;;;;;10.48;3.83;;;25.00;94.00;;;;;;5000922;28;89177;-88
2023/08/24 12:28:13;;;;;;;9.50;4.53;;;24.90;94.00;;;;;;5010007;28;92530;-86
2023/08/24 12:30:50;;;;;;;8.43;4.40;;;24.80;94.10;;;;;;4999978;28;94670;-88
2023/08/24 12:33:22;;;;;;;8.30;3.67;;;24.60;94.90;;;;;;5000415;28;87720;-87
2023/08/24 12:35:49;;;;;;;8.95;4.75;;;24.50;94.90;;;;;;5016365;28;90672;-86
2023/08/24 12:38:14;;;;;;;9.82;4.25;;;24.30;94.80;;;;;;5017360;28;90582;-86
2023/08/24 12:40:40;;;;;;;7.03;3.70;;;24.10;95.10;;;;;;5001704;28;90604;-85
2023/08/24 12:43:06;;;;;;;9.18;3.95;;;23.90;95.20;;;;;;5002143;28;87490;-86
2023/08/24 12:45:32;;;;;;;9.40;3.80;;;23.80;95.50;;;;;;5017170;28;89834;-81